createdAt,value
2023-01-19T00:01:02.740Z,26.75
2023-01-19T00:03:29.865Z,28.38
2023-01-19T00:05:57.359Z,26.38
2023-01-19T00:08:24.440Z,24.70
2023-01-19T00:10:51.659Z,26.77
2023-01-19T00:13:19.197Z,27.73
2023-01-19T00:15:46.617Z,24.50
2023-01-19T00:18:13.861Z,24.98
2023-01-19T00:20:41.129Z,22.77
2023-01-19T00:23:08.935Z,23.75
2023-01-19T00:25:42.511Z,23.52
2023-01-19T00:28:15.543Z,25.25
2023-01-19T00:30:43.793Z,26.75
2023-01-19T00:33:14.669Z,23.52
2023-01-19T00:35:45.353Z,21.65
2023-01-19T00:38:12.867Z,25.42
2023-01-19T00:40:40.141Z,29.48
2023-01-19T00:43:07.181Z,25.60
2023-01-19T00:45:34.491Z,26.60
2023-01-19T00:48:02.314Z,26.90
2023-01-19T00:50:31.777Z,24.75
2023-01-19T00:53:03.594Z,26.45
2023-01-19T00:55:32.827Z,26.95
2023-01-19T00:58:00.630Z,26.60
2023-01-19T01:00:27.757Z,28.13
2023-01-19T01:02:55.107Z,26.30
2023-01-19T01:05:22.601Z,24.08
2023-01-19T01:07:50.103Z,26.60
2023-01-19T01:10:23.441Z,27.90
2023-01-19T01:12:56.093Z,27.05
2023-01-19T01:15:26.789Z,26.77
2023-01-19T01:17:54.624Z,30.13
2023-01-19T01:20:25.485Z,28.58
2023-01-19T01:22:55.372Z,29.20
2023-01-19T01:25:24.822Z,25.73
2023-01-19T01:27:52.690Z,26.20
2023-01-19T01:30:20.260Z,26.23
2023-01-19T01:32:47.793Z,25.75
2023-01-19T01:35:15.925Z,27.77
2023-01-19T01:37:43.574Z,29.58
2023-01-19T01:40:16.596Z,25.55
2023-01-19T01:42:44.303Z,25.95
2023-01-19T01:45:34.119Z,24.23
2023-01-19T01:48:14.452Z,28.13
2023-01-19T01:51:22.632Z,24.67
2023-01-19T01:54:01.013Z,28.65
2023-01-19T01:56:35.409Z,26.30
2023-01-19T01:59:06.859Z,28.80
2023-01-19T02:01:55.651Z,28.90
2023-01-19T02:04:24.036Z,27.73
2023-01-19T02:07:09.742Z,29.50
2023-01-19T02:09:56.503Z,28.30
2023-01-19T02:12:42.494Z,29.48
2023-01-19T02:15:18.479Z,26.42
2023-01-19T02:17:46.666Z,35.33
2023-01-19T02:20:14.303Z,29.27
2023-01-19T02:22:48.247Z,29.80
2023-01-19T02:25:16.826Z,39.73
2023-01-19T02:27:44.701Z,33.35
2023-01-19T02:30:13.269Z,32.78
2023-01-19T02:32:40.604Z,25.75
2023-01-19T02:35:07.985Z,29.35
2023-01-19T02:37:40.491Z,30.23
2023-01-19T02:40:12.697Z,32.25
2023-01-19T02:42:46.129Z,29.83
2023-01-19T02:45:17.518Z,29.08
2023-01-19T02:47:47.584Z,28.42
2023-01-19T02:50:31.653Z,30.15
2023-01-19T02:53:06.920Z,27.35
2023-01-19T02:55:34.596Z,30.05
2023-01-19T02:58:28.481Z,28.90
2023-01-19T03:01:14.179Z,28.20
2023-01-19T03:03:51.380Z,33.60
2023-01-19T03:06:33.633Z,28.92
2023-01-19T03:09:15.111Z,29.95
2023-01-19T03:11:48.892Z,31.67
2023-01-19T03:14:22.303Z,30.13
2023-01-19T03:16:57.303Z,30.10
2023-01-19T03:19:32.192Z,30.63
2023-01-19T03:22:03.058Z,35.47
2023-01-19T03:24:40.331Z,29.33
2023-01-19T03:27:12.938Z,32.60
2023-01-19T03:29:46.374Z,33.08
2023-01-19T03:32:22.328Z,28.60
2023-01-19T03:34:51.842Z,29.77
2023-01-19T03:37:21.460Z,30.10
2023-01-19T03:39:48.905Z,28.73
2023-01-19T03:42:18.172Z,29.60
2023-01-19T03:44:46.765Z,31.05
2023-01-19T03:47:15.681Z,26.73
2023-01-19T03:49:47.809Z,29.77
2023-01-19T03:52:15.153Z,35.20
2023-01-19T03:54:43.751Z,30.40
2023-01-19T03:57:10.836Z,27.80
2023-01-19T03:59:37.886Z,30.70
2023-01-19T04:02:05.350Z,33.72
2023-01-19T04:04:32.765Z,32.60
2023-01-19T04:07:01.568Z,30.65
2023-01-19T04:09:28.874Z,34.85
2023-01-19T04:11:58.040Z,41.45
2023-01-19T04:14:25.298Z,37.88
2023-01-19T04:16:52.657Z,31.30
2023-01-19T04:19:20.442Z,35.15
2023-01-19T04:21:51.335Z,31.75
2023-01-19T04:24:18.637Z,33.78
2023-01-19T04:26:45.773Z,34.72
2023-01-19T04:29:14.211Z,31.88
2023-01-19T04:31:41.262Z,28.35
2023-01-19T04:34:08.450Z,32.13
2023-01-19T04:36:37.304Z,34.10
2023-01-19T04:39:05.320Z,35.75
2023-01-19T04:41:32.551Z,32.10
2023-01-19T04:43:59.754Z,34.20
2023-01-19T04:46:27.608Z,32.63
2023-01-19T04:48:54.835Z,33.83
2023-01-19T04:51:22.669Z,32.92
2023-01-19T04:53:50.432Z,34.42
2023-01-19T04:56:17.706Z,30.27
2023-01-19T04:58:45.591Z,33.47
2023-01-19T05:01:14.371Z,39.15
2023-01-19T05:03:42.147Z,40.22
2023-01-19T05:06:09.580Z,28.65
2023-01-19T05:08:36.851Z,36.60
2023-01-19T05:11:04.596Z,32.03
2023-01-19T05:13:31.875Z,32.40
2023-01-19T05:15:59.492Z,29.23
2023-01-19T05:18:26.582Z,33.45
2023-01-19T05:20:54.038Z,37.33
2023-01-19T05:23:21.634Z,34.15
2023-01-19T05:25:49.032Z,30.90
2023-01-19T05:28:16.899Z,31.98
2023-01-19T05:30:44.128Z,34.90
2023-01-19T05:33:11.975Z,35.90
2023-01-19T05:35:39.349Z,34.22
2023-01-19T05:38:06.799Z,35.88
2023-01-19T05:40:34.001Z,37.88
2023-01-19T05:43:05.500Z,37.78
2023-01-19T05:45:32.982Z,37.03
2023-01-19T05:48:02.318Z,33.80
2023-01-19T05:50:29.467Z,35.40
2023-01-19T05:52:56.865Z,37.08
2023-01-19T05:55:24.369Z,33.17
2023-01-19T05:57:51.614Z,35.53
2023-01-19T06:00:19.739Z,38.65
2023-01-19T06:02:49.539Z,34.83
2023-01-19T06:05:17.221Z,35.97
2023-01-19T06:07:44.430Z,38.65
2023-01-19T06:10:12.211Z,36.80
2023-01-19T06:12:44.173Z,41.60
2023-01-19T06:15:13.224Z,36.40
2023-01-19T06:17:40.870Z,36.55
2023-01-19T06:20:09.265Z,38.38
2023-01-19T06:22:36.375Z,38.78
2023-01-19T06:25:03.910Z,41.00
2023-01-19T06:27:31.016Z,36.42
2023-01-19T06:29:59.178Z,44.42
2023-01-19T06:32:26.501Z,39.50
2023-01-19T06:34:54.213Z,40.65
2023-01-19T06:37:21.724Z,37.33
2023-01-19T06:39:48.947Z,36.80
2023-01-19T06:42:16.289Z,39.60
2023-01-19T06:44:47.639Z,37.40
2023-01-19T06:47:16.691Z,38.42
2023-01-19T06:49:45.399Z,41.22
2023-01-19T06:52:17.709Z,36.88
2023-01-19T06:54:45.597Z,37.63
2023-01-19T06:57:14.081Z,36.92
2023-01-19T06:59:42.130Z,36.25
2023-01-19T07:02:26.678Z,33.05
2023-01-19T07:04:56.526Z,34.35
2023-01-19T07:07:24.546Z,41.40
2023-01-19T07:09:53.952Z,37.88
2023-01-19T07:12:23.788Z,39.50
2023-01-19T07:14:53.214Z,35.92
2023-01-19T07:17:21.313Z,37.88
2023-01-19T07:19:48.444Z,36.50
2023-01-19T07:22:16.336Z,34.40
2023-01-19T07:24:43.842Z,39.67
2023-01-19T07:27:12.498Z,31.80
2023-01-19T07:29:40.048Z,37.42
2023-01-19T07:32:07.720Z,38.10
2023-01-19T07:34:35.035Z,34.20
2023-01-19T07:37:02.749Z,31.17
2023-01-19T07:39:30.946Z,36.42
2023-01-19T07:41:59.194Z,30.50
2023-01-19T07:44:27.369Z,35.83
2023-01-19T07:46:54.754Z,36.08
2023-01-19T07:49:22.275Z,35.80
2023-01-19T07:51:49.698Z,34.97
2023-01-19T07:54:16.892Z,33.30
2023-01-19T07:56:44.180Z,35.67
2023-01-19T07:59:11.596Z,35.58
2023-01-19T08:01:39.427Z,37.42
2023-01-19T08:04:06.966Z,35.00
2023-01-19T08:06:37.187Z,34.20
2023-01-19T08:09:09.533Z,39.03
2023-01-19T08:11:37.544Z,36.80
2023-01-19T08:14:07.773Z,33.78
2023-01-19T08:16:35.736Z,34.03
2023-01-19T08:19:06.143Z,33.90
2023-01-19T08:21:33.740Z,37.67
2023-01-19T08:24:01.463Z,34.22
2023-01-19T08:26:34.949Z,31.48
2023-01-19T08:29:05.513Z,30.15
2023-01-19T08:31:33.167Z,37.05
2023-01-19T08:34:00.646Z,34.60
2023-01-19T08:36:27.979Z,35.72
2023-01-19T08:38:55.626Z,35.92
2023-01-19T08:41:23.006Z,32.80
2023-01-19T08:43:50.702Z,34.60
2023-01-19T08:46:21.295Z,35.00
2023-01-19T08:48:49.625Z,28.52
2023-01-19T08:51:17.538Z,37.03
2023-01-19T08:53:44.736Z,35.03
2023-01-19T08:56:15.348Z,32.50
2023-01-19T08:58:44.390Z,33.45
2023-01-19T09:01:14.962Z,32.40
2023-01-19T09:03:42.701Z,29.40
2023-01-19T09:06:12.463Z,35.25
2023-01-19T09:08:41.293Z,34.42
2023-01-19T09:11:14.220Z,30.15
2023-01-19T09:13:42.755Z,29.60
2023-01-19T09:16:12.817Z,30.33
2023-01-19T09:18:41.526Z,31.55
2023-01-19T09:21:10.010Z,30.00
2023-01-19T09:23:38.520Z,41.20
2023-01-19T09:26:10.588Z,35.90
2023-01-19T09:28:37.993Z,35.92
2023-01-19T09:31:08.861Z,31.33
2023-01-19T09:33:37.292Z,35.35
2023-01-19T09:36:04.585Z,35.58
2023-01-19T09:38:33.067Z,35.38
2023-01-19T09:41:01.576Z,31.65
2023-01-19T09:44:01.434Z,31.13
2023-01-19T09:46:42.315Z,33.20
2023-01-19T09:49:31.758Z,33.65
2023-01-19T09:51:59.750Z,29.27
2023-01-19T09:54:41.252Z,32.25
2023-01-19T09:57:12.787Z,35.13
2023-01-19T09:59:41.803Z,26.95
2023-01-19T10:02:32.060Z,40.97
2023-01-19T10:05:21.736Z,35.30
2023-01-19T10:08:03.908Z,36.03
2023-01-19T10:10:32.558Z,41.42
2023-01-19T10:13:03.168Z,37.15
2023-01-19T10:15:57.526Z,27.60
2023-01-19T10:18:48.052Z,38.08
2023-01-19T10:21:20.983Z,33.55
2023-01-19T10:24:00.036Z,33.55
2023-01-19T10:26:52.678Z,41.15
2023-01-19T10:29:28.881Z,37.35
2023-01-19T10:32:18.274Z,32.08
2023-01-19T10:34:46.602Z,37.97
2023-01-19T10:37:31.051Z,34.22
2023-01-19T10:40:10.712Z,35.28
2023-01-19T10:42:40.814Z,43.15
2023-01-19T10:45:22.485Z,40.42
2023-01-19T10:47:49.947Z,36.45
2023-01-19T10:50:26.206Z,38.67
2023-01-19T10:52:56.598Z,40.45
2023-01-19T10:55:25.857Z,40.72
2023-01-19T10:57:53.867Z,41.25
2023-01-19T11:00:38.234Z,35.20
2023-01-19T11:03:23.251Z,42.38
2023-01-19T11:05:50.841Z,39.50
2023-01-19T11:08:24.433Z,38.42
2023-01-19T11:10:59.740Z,44.70
2023-01-19T11:13:27.057Z,31.60
2023-01-19T11:15:59.417Z,39.75
2023-01-19T11:18:40.800Z,37.20
2023-01-19T11:21:22.431Z,39.05
2023-01-19T11:23:53.207Z,41.95
2023-01-19T11:26:28.372Z,44.40
2023-01-19T11:28:57.240Z,39.45
2023-01-19T11:31:34.203Z,42.42
2023-01-19T11:34:07.189Z,40.83
2023-01-19T11:36:37.584Z,43.80
2023-01-19T11:39:26.766Z,36.30
2023-01-19T11:42:01.671Z,42.78
2023-01-19T11:44:36.045Z,35.88
2023-01-19T11:47:12.800Z,40.80
2023-01-19T11:49:56.057Z,34.45
2023-01-19T11:52:33.140Z,39.35
2023-01-19T11:55:27.236Z,36.03
2023-01-19T11:57:55.075Z,38.97
2023-01-19T12:00:35.677Z,38.00
2023-01-19T12:03:26.179Z,44.58
2023-01-19T12:05:58.884Z,41.75
2023-01-19T12:08:33.870Z,41.92
2023-01-19T12:13:33.818Z,36.60
2023-01-19T12:16:00.969Z,37.97
2023-01-19T12:18:41.316Z,35.03
2023-01-19T12:21:08.705Z,38.45
2023-01-19T12:24:06.408Z,38.72
2023-01-19T12:26:33.598Z,38.83
2023-01-19T12:29:22.533Z,37.03
2023-01-19T12:32:14.864Z,35.35
2023-01-19T12:34:47.516Z,37.33
2023-01-19T12:37:38.410Z,37.22
2023-01-19T12:40:31.754Z,32.05
2023-01-19T12:43:04.035Z,31.38
2023-01-19T12:45:36.371Z,38.00
2023-01-19T12:48:04.989Z,31.77
2023-01-19T12:50:40.338Z,37.55
2023-01-19T12:53:19.852Z,36.42
2023-01-19T12:56:00.455Z,35.25
2023-01-19T12:58:27.903Z,33.58
2023-01-19T13:01:21.669Z,39.72
2023-01-19T13:03:58.428Z,33.63
2023-01-19T13:06:47.988Z,35.67
2023-01-19T13:09:36.152Z,32.90
2023-01-19T13:12:15.741Z,33.58
2023-01-19T13:14:44.224Z,37.33
2023-01-19T13:17:40.027Z,41.60
2023-01-19T13:20:27.391Z,33.83
2023-01-19T13:23:36.855Z,34.70
2023-01-19T13:26:07.116Z,32.00
2023-01-19T13:28:52.939Z,31.90
2023-01-19T13:31:21.017Z,32.13
2023-01-19T13:33:53.292Z,35.30
2023-01-19T13:36:23.386Z,33.33
2023-01-19T13:38:52.421Z,32.97
2023-01-19T13:41:24.538Z,33.67
2023-01-19T13:44:05.346Z,34.47
2023-01-19T13:46:33.860Z,35.15
2023-01-19T13:49:10.029Z,38.92
2023-01-19T13:51:37.402Z,37.33
2023-01-19T13:54:06.362Z,37.13
2023-01-19T13:56:33.827Z,39.53
2023-01-19T13:59:12.736Z,34.65
2023-01-19T14:01:44.896Z,37.72
2023-01-19T14:04:31.944Z,41.72
2023-01-19T14:07:06.834Z,36.72
2023-01-19T14:09:34.360Z,38.15
2023-01-19T14:12:19.499Z,35.13
2023-01-19T14:14:48.561Z,36.13
2023-01-19T14:17:23.091Z,34.63
2023-01-19T14:19:52.095Z,32.83
2023-01-19T14:22:19.417Z,37.58
2023-01-19T14:24:46.801Z,35.20
2023-01-19T14:27:20.722Z,33.50
2023-01-19T14:29:51.020Z,35.00
2023-01-19T14:32:20.351Z,36.45
2023-01-19T14:35:04.425Z,35.47
2023-01-19T14:37:36.559Z,36.33
2023-01-19T14:40:13.235Z,34.55
2023-01-19T14:42:43.613Z,35.70
2023-01-19T14:45:35.351Z,38.83
2023-01-19T14:48:18.404Z,33.58
2023-01-19T14:51:02.012Z,34.85
2023-01-19T14:53:38.848Z,37.30
2023-01-19T14:56:07.024Z,33.80
2023-01-19T14:58:36.123Z,33.45
2023-01-19T15:01:07.790Z,32.13
2023-01-19T15:03:44.058Z,34.70
2023-01-19T15:06:16.602Z,34.45
2023-01-19T15:08:45.599Z,33.03
2023-01-19T15:11:32.815Z,31.38
2023-01-19T15:14:00.857Z,34.35
2023-01-19T15:16:30.323Z,36.28
2023-01-19T15:18:57.737Z,33.47
2023-01-19T15:21:26.926Z,35.83
2023-01-19T15:23:55.324Z,31.35
2023-01-19T15:26:26.113Z,34.17
2023-01-19T15:28:54.140Z,30.20
2023-01-19T15:31:24.096Z,33.20
2023-01-19T15:33:51.222Z,31.80
2023-01-19T15:36:21.242Z,38.10
2023-01-19T15:38:51.648Z,34.70
2023-01-19T15:41:24.319Z,31.17
2023-01-19T15:43:52.332Z,32.25
2023-01-19T15:46:23.662Z,34.13
2023-01-19T15:48:51.301Z,32.22
2023-01-19T15:51:22.045Z,35.40
2023-01-19T15:53:49.951Z,37.08
2023-01-19T15:56:22.166Z,37.25
2023-01-19T15:58:49.612Z,35.40
2023-01-19T16:01:21.736Z,34.70
2023-01-19T16:03:53.395Z,39.58
2023-01-19T16:06:20.969Z,41.13
2023-01-19T16:08:48.175Z,41.25
2023-01-19T16:11:16.264Z,36.15
2023-01-19T16:13:48.848Z,36.15
2023-01-19T16:16:19.862Z,39.40
2023-01-19T16:18:47.673Z,32.33
2023-01-19T16:21:15.875Z,35.22
2023-01-19T16:23:43.447Z,36.40
2023-01-19T16:26:34.610Z,36.42
2023-01-19T16:29:09.416Z,37.13
2023-01-19T16:31:41.327Z,37.90
2023-01-19T16:34:09.752Z,38.10
2023-01-19T16:36:40.566Z,33.30
2023-01-19T16:39:12.191Z,32.17
2023-01-19T16:41:39.775Z,37.38
2023-01-19T16:44:08.499Z,34.40
2023-01-19T16:46:39.254Z,34.78
2023-01-19T16:49:21.460Z,36.47
2023-01-19T16:51:49.620Z,40.90
2023-01-19T16:54:19.781Z,31.75
2023-01-19T16:56:47.666Z,34.35
2023-01-19T16:59:17.480Z,34.92
2023-01-19T17:01:47.774Z,37.47
2023-01-19T17:04:15.037Z,39.75
2023-01-19T17:06:43.582Z,36.30
2023-01-19T17:09:11.886Z,37.40
2023-01-19T17:11:40.616Z,35.88
2023-01-19T17:14:15.471Z,35.33
2023-01-19T17:19:17.330Z,34.28
2023-01-19T17:21:50.714Z,33.72
2023-01-19T17:24:18.356Z,35.25
2023-01-19T17:26:48.662Z,31.38
2023-01-19T17:29:16.632Z,38.60
2023-01-19T17:31:45.012Z,33.33
2023-01-19T17:34:12.531Z,36.97
2023-01-19T17:36:41.076Z,32.92
2023-01-19T17:39:12.072Z,36.42
2023-01-19T17:41:39.265Z,30.90
2023-01-19T17:44:07.395Z,32.20
2023-01-19T17:46:38.907Z,33.95
2023-01-19T17:49:08.155Z,32.30
2023-01-19T17:51:36.767Z,36.28
2023-01-19T17:54:04.893Z,33.78
2023-01-19T17:56:36.939Z,38.17
2023-01-19T17:59:06.988Z,35.80
2023-01-19T18:01:38.400Z,35.85
2023-01-19T18:04:07.738Z,30.80
2023-01-19T18:06:35.422Z,31.67
2023-01-19T18:09:07.524Z,28.85
2023-01-19T18:11:35.869Z,27.75
2023-01-19T18:14:03.315Z,32.50
2023-01-19T18:16:32.996Z,33.00
2023-01-19T18:19:00.285Z,31.83
2023-01-19T18:21:38.120Z,34.08
2023-01-19T18:24:06.255Z,34.22
2023-01-19T18:26:35.800Z,31.33
2023-01-19T18:29:03.297Z,34.38
2023-01-19T18:31:31.381Z,37.03
2023-01-19T18:34:00.896Z,32.60
2023-01-19T18:36:28.729Z,38.47
2023-01-19T18:38:56.989Z,33.35
2023-01-19T18:41:25.528Z,32.70
2023-01-19T18:44:01.336Z,31.48
2023-01-19T18:46:28.679Z,37.10
2023-01-19T18:48:59.043Z,41.17
2023-01-19T18:51:26.716Z,35.33
2023-01-19T18:53:54.228Z,39.00
2023-01-19T18:56:26.306Z,38.58
2023-01-19T18:58:54.848Z,34.47
2023-01-19T19:01:26.672Z,35.90
2023-01-19T19:03:55.604Z,36.17
2023-01-19T19:06:27.541Z,37.17
2023-01-19T19:08:58.161Z,33.67
2023-01-19T19:11:26.548Z,33.95
2023-01-19T19:13:55.707Z,36.53
2023-01-19T19:16:23.501Z,33.20
2023-01-19T19:18:51.490Z,35.85
2023-01-19T19:21:20.553Z,39.05
2023-01-19T19:23:53.087Z,36.40
2023-01-19T19:26:20.686Z,38.65
2023-01-19T19:28:47.906Z,34.28
2023-01-19T19:31:20.695Z,34.58
2023-01-19T19:33:49.030Z,36.15
2023-01-19T19:36:17.234Z,36.00
2023-01-19T19:38:50.193Z,41.22
2023-01-19T19:41:23.554Z,36.05
2023-01-19T19:43:51.601Z,39.60
2023-01-19T19:46:20.351Z,40.17
2023-01-19T19:48:48.853Z,38.85
2023-01-19T19:51:22.656Z,33.75
2023-01-19T19:53:52.000Z,39.80
2023-01-19T19:56:22.050Z,36.40
2023-01-19T19:58:50.743Z,39.13
2023-01-19T20:01:27.660Z,36.45
2023-01-19T20:03:57.664Z,37.50
2023-01-19T20:06:26.897Z,37.88
2023-01-19T20:08:56.642Z,35.45
2023-01-19T20:11:27.343Z,38.63
2023-01-19T20:13:55.440Z,33.22
2023-01-19T20:16:23.846Z,41.22
2023-01-19T20:18:54.408Z,35.63
2023-01-19T20:21:29.658Z,34.97
2023-01-19T20:24:02.272Z,40.63
2023-01-19T20:26:32.476Z,36.60
2023-01-19T20:29:10.344Z,32.22
2023-01-19T20:31:42.922Z,35.53
2023-01-19T20:34:13.417Z,39.90
2023-01-19T20:36:41.363Z,37.50
2023-01-19T20:39:10.429Z,36.78
2023-01-19T20:41:43.813Z,40.80
2023-01-19T20:44:19.946Z,30.20
2023-01-19T20:46:48.371Z,32.88
2023-01-19T20:49:16.266Z,34.35
2023-01-19T20:51:45.436Z,35.83
2023-01-19T20:54:15.100Z,35.28
2023-01-19T20:56:43.511Z,40.40
2023-01-19T20:59:11.762Z,32.33
2023-01-19T21:01:39.940Z,32.67
2023-01-19T21:04:08.017Z,34.95
2023-01-19T21:06:35.317Z,33.60
2023-01-19T21:09:02.463Z,33.83
2023-01-19T21:11:29.956Z,35.25
2023-01-19T21:13:57.170Z,39.13
2023-01-19T21:16:27.036Z,37.85
2023-01-19T21:18:55.157Z,36.33
2023-01-19T21:21:30.917Z,33.53
2023-01-19T21:24:00.914Z,38.65
2023-01-19T21:26:33.602Z,33.65
2023-01-19T21:29:01.970Z,37.35
2023-01-19T21:31:30.096Z,40.30
2023-01-19T21:33:58.541Z,38.13
2023-01-19T21:36:26.143Z,39.65
2023-01-19T21:38:55.791Z,39.17
2023-01-19T21:41:23.621Z,35.97
2023-01-19T21:43:50.746Z,38.03
2023-01-19T21:46:29.616Z,36.72
2023-01-19T21:49:03.333Z,33.60
2023-01-19T21:51:36.061Z,36.78
2023-01-19T21:54:05.580Z,33.40
2023-01-19T21:56:34.083Z,39.10
2023-01-19T21:59:04.396Z,38.67
2023-01-19T22:01:33.928Z,37.80
2023-01-19T22:04:01.508Z,37.85
2023-01-19T22:06:28.976Z,41.53
2023-01-19T22:08:58.551Z,40.92
2023-01-19T22:11:25.655Z,35.90
2023-01-19T22:13:54.596Z,38.65
2023-01-19T22:16:23.270Z,39.10
2023-01-19T22:18:56.369Z,38.63
2023-01-19T22:21:26.567Z,37.30
2023-01-19T22:24:02.020Z,41.03
2023-01-19T22:26:34.487Z,40.55
2023-01-19T22:29:02.840Z,48.58
2023-01-19T22:31:30.940Z,41.15
2023-01-19T22:34:06.313Z,41.10
2023-01-19T22:36:36.800Z,37.75
2023-01-19T22:39:09.398Z,42.33
2023-01-19T22:41:41.371Z,43.28
2023-01-19T22:44:12.768Z,41.28
2023-01-19T22:46:39.914Z,40.97
2023-01-19T22:49:08.991Z,43.97
2023-01-19T22:51:36.508Z,41.20
2023-01-19T22:54:04.199Z,40.22
2023-01-19T22:56:33.660Z,40.58
2023-01-19T22:59:01.668Z,40.20
2023-01-19T23:01:38.246Z,43.38
2023-01-19T23:04:06.498Z,42.33
2023-01-19T23:06:36.343Z,46.05
2023-01-19T23:09:10.913Z,43.88
2023-01-19T23:11:41.205Z,40.25
2023-01-19T23:14:12.768Z,44.22
2023-01-19T23:16:39.897Z,45.08
2023-01-19T23:19:07.307Z,44.78
2023-01-19T23:21:53.386Z,42.33
2023-01-19T23:24:20.773Z,44.92
2023-01-19T23:26:51.953Z,42.08
2023-01-19T23:29:19.858Z,42.53
2023-01-19T23:31:49.231Z,37.90
2023-01-19T23:34:17.186Z,39.88
2023-01-19T23:36:45.760Z,41.33
2023-01-19T23:39:19.095Z,43.30
2023-01-19T23:41:46.470Z,42.67
2023-01-19T23:44:14.590Z,35.70
2023-01-19T23:46:41.730Z,40.58
2023-01-19T23:49:10.336Z,40.15
2023-01-19T23:51:39.186Z,39.67
2023-01-19T23:54:06.239Z,42.10
2023-01-19T23:56:36.052Z,40.35
2023-01-19T23:59:07.430Z,40.92
